createdAt,value
2022-09-12T10:38:09.301Z,32.78
2022-09-12T10:40:39.228Z,28.38
2022-09-12T10:43:24.889Z,26.62
2022-09-12T10:45:52.343Z,25.55
2022-09-12T10:48:31.919Z,24.92
2022-09-12T10:51:01.531Z,24.41
2022-09-12T10:53:34.712Z,24.10
2022-09-12T10:56:10.635Z,24.25
2022-09-12T10:58:50.116Z,24.18
2022-09-12T11:01:32.911Z,23.85
2022-09-12T11:04:26.536Z,24.04
2022-09-12T11:07:08.674Z,24.00
2022-09-12T11:10:06.542Z,23.75
2022-09-12T11:12:55.067Z,23.76
2022-09-12T11:15:57.123Z,23.67
2022-09-12T11:19:03.902Z,23.59
2022-09-12T11:21:47.566Z,23.34
2022-09-12T11:24:19.043Z,23.48
2022-09-12T11:27:15.156Z,23.24
2022-09-12T11:30:03.908Z,23.03
2022-09-12T11:32:42.802Z,22.89
2022-09-12T11:35:17.580Z,23.12
2022-09-12T11:38:09.536Z,22.82
2022-09-12T11:40:46.741Z,22.97
2022-09-12T11:43:31.059Z,22.56
2022-09-12T11:48:49.368Z,22.43
2022-09-12T11:51:26.005Z,22.36
2022-09-12T11:54:16.129Z,22.46
2022-09-12T11:56:48.134Z,22.27
2022-09-12T11:59:34.053Z,22.29
2022-09-12T12:02:04.123Z,22.25
2022-09-12T12:04:46.161Z,22.08
2022-09-12T12:07:13.212Z,22.29
2022-09-12T12:09:50.706Z,22.02
2022-09-12T12:12:25.809Z,22.05
2022-09-12T12:14:55.946Z,22.07
2022-09-12T12:17:25.394Z,21.69
2022-09-12T12:20:07.478Z,21.61
2022-09-12T12:22:36.311Z,21.52
2022-09-12T12:25:12.614Z,21.89
2022-09-12T12:28:02.367Z,21.70
2022-09-12T12:30:33.770Z,21.54
2022-09-12T12:33:07.737Z,21.66
2022-09-12T12:35:44.080Z,21.32
2022-09-12T12:38:46.402Z,21.23
2022-09-12T12:41:19.362Z,21.03
2022-09-12T12:43:49.718Z,21.37
2022-09-12T12:46:21.522Z,20.83
2022-09-12T12:49:10.122Z,21.03
2022-09-12T12:51:56.341Z,21.29
2022-09-12T12:54:48.141Z,21.28
2022-09-12T12:57:19.970Z,21.15
2022-09-12T13:00:28.081Z,21.21
2022-09-12T13:03:07.387Z,21.05
2022-09-12T13:05:53.953Z,20.88
2022-09-12T13:08:21.242Z,21.23
2022-09-12T13:10:52.935Z,21.16
2022-09-12T13:13:32.259Z,21.18
2022-09-12T13:15:59.359Z,21.31
2022-09-12T13:18:30.542Z,21.06
2022-09-12T13:21:04.892Z,20.77
2022-09-12T13:23:33.091Z,20.91
2022-09-12T13:26:02.489Z,20.78
2022-09-12T13:28:31.403Z,20.88
2022-09-12T13:31:04.618Z,20.59
2022-09-12T13:33:42.311Z,20.69
2022-09-12T13:36:30.415Z,20.79
2022-09-12T13:39:06.534Z,20.67
2022-09-12T13:41:42.081Z,20.90
2022-09-12T13:44:16.643Z,20.72
2022-09-12T13:46:44.563Z,20.86
2022-09-12T13:49:31.107Z,20.85
2022-09-12T13:52:06.002Z,20.82
2022-09-12T13:54:38.199Z,21.04
2022-09-12T13:57:06.169Z,20.74
2022-09-12T13:59:44.583Z,20.68
2022-09-12T14:02:20.578Z,20.71
2022-09-12T14:05:07.831Z,20.75
2022-09-12T14:07:40.781Z,20.75
2022-09-12T14:10:08.209Z,20.84
2022-09-12T14:12:43.806Z,20.69
2022-09-12T14:15:23.815Z,20.62
2022-09-12T14:17:54.049Z,21.25
2022-09-12T14:20:23.663Z,20.46
2022-09-12T14:22:52.667Z,20.61
2022-09-12T14:25:22.919Z,20.84
2022-09-12T14:27:59.455Z,20.61
2022-09-12T14:30:32.859Z,20.59
2022-09-12T14:33:05.915Z,20.54
2022-09-12T14:35:33.825Z,20.31
2022-09-12T14:38:10.412Z,20.64
2022-09-12T14:41:10.164Z,20.90
2022-09-12T14:43:41.524Z,20.48
2022-09-12T14:46:21.730Z,20.29
2022-09-12T14:49:00.435Z,20.63
2022-09-12T14:51:49.389Z,20.13
2022-09-12T14:54:34.264Z,20.13
2022-09-12T14:57:31.018Z,20.43
2022-09-12T15:00:22.096Z,20.60
2022-09-12T15:02:52.539Z,20.41
2022-09-12T15:05:25.918Z,20.48
2022-09-12T15:08:00.688Z,20.51
2022-09-12T15:10:38.037Z,20.58
2022-09-12T15:13:14.641Z,20.56
2022-09-12T15:15:44.739Z,20.41
2022-09-12T15:18:12.754Z,20.72
2022-09-12T15:20:43.189Z,20.48
2022-09-12T15:23:28.569Z,20.70
2022-09-12T15:25:56.034Z,20.67
2022-09-12T15:28:24.310Z,20.58
2022-09-12T15:30:53.833Z,20.83
2022-09-12T15:33:24.385Z,20.85
2022-09-12T15:35:52.767Z,20.72
2022-09-12T15:38:25.803Z,20.98
2022-09-12T15:40:54.963Z,20.87
2022-09-12T15:43:53.746Z,20.69
2022-09-12T15:46:21.226Z,21.06
2022-09-12T15:48:56.097Z,20.82
2022-09-12T15:51:25.747Z,21.20
2022-09-12T15:53:53.292Z,21.30
2022-09-12T15:56:22.815Z,20.92
2022-09-12T15:58:58.790Z,20.75
2022-09-12T16:01:28.804Z,21.07
2022-09-12T16:03:56.668Z,21.22
2022-09-12T16:06:37.233Z,20.84
2022-09-12T16:09:05.106Z,21.31
2022-09-12T16:11:33.455Z,21.01
2022-09-12T16:14:00.878Z,21.13
2022-09-12T16:16:28.461Z,21.44
2022-09-12T16:23:26.331Z,21.59
2022-09-12T16:26:02.312Z,21.29
2022-09-12T16:28:30.467Z,20.97
2022-09-12T16:30:59.360Z,21.21
2022-09-12T16:33:33.573Z,21.09
2022-09-12T16:36:06.786Z,21.32
2022-09-12T16:38:36.072Z,21.34
2022-09-12T16:41:08.062Z,21.54
2022-09-12T16:43:37.301Z,21.43
2022-09-12T16:46:16.771Z,21.31
2022-09-12T16:48:54.000Z,21.34
2022-09-12T16:51:24.344Z,21.26
2022-09-12T16:53:54.188Z,21.33
2022-09-12T16:56:22.582Z,21.42
2022-09-12T16:58:52.560Z,21.59
2022-09-12T17:01:23.951Z,21.50
2022-09-12T17:03:58.434Z,21.64
2022-09-12T17:06:27.302Z,21.75
2022-09-12T17:08:58.252Z,21.43
2022-09-12T17:11:30.897Z,21.90
2022-09-12T17:14:05.040Z,21.45
2022-09-12T17:16:42.243Z,21.75
2022-09-12T17:19:19.018Z,21.84
2022-09-12T17:21:50.545Z,21.54
2022-09-12T17:24:19.302Z,21.97
2022-09-12T17:26:52.067Z,21.95
2022-09-12T17:29:19.746Z,21.50
2022-09-12T17:31:48.506Z,22.04
2022-09-12T17:34:16.742Z,21.85
2022-09-12T17:37:03.185Z,21.93
2022-09-12T17:39:30.534Z,21.90
2022-09-12T17:42:02.838Z,22.12
2022-09-12T17:44:38.040Z,21.95
2022-09-12T17:47:05.847Z,22.19
2022-09-12T17:49:33.753Z,22.21
2022-09-12T17:52:17.660Z,22.34
2022-09-12T17:54:45.494Z,22.02
2022-09-12T18:04:23.042Z,22.30
2022-09-12T18:22:50.486Z,22.40
2022-09-12T18:25:17.522Z,22.52
2022-09-12T18:27:44.720Z,22.35
2022-09-12T18:30:21.805Z,22.37
2022-09-12T18:32:50.361Z,22.41
2022-09-12T18:35:17.935Z,22.46
2022-09-12T18:37:45.178Z,22.49
2022-09-12T18:40:12.355Z,22.28
2022-09-12T18:42:39.526Z,22.54
2022-09-12T18:45:07.418Z,22.53
2022-09-12T18:47:34.518Z,22.26
2022-09-12T18:50:01.670Z,22.43
2022-09-12T18:52:28.933Z,22.75
2022-09-12T18:54:55.931Z,22.41
2022-09-12T18:57:25.186Z,22.51
2022-09-12T18:59:53.266Z,22.62
2022-09-12T19:02:20.587Z,22.39
2022-09-12T19:04:47.680Z,22.88
2022-09-12T19:07:15.426Z,22.52
2022-09-12T19:09:42.452Z,22.83
2022-09-12T19:12:09.587Z,22.84
2022-09-12T19:16:18.709Z,22.81
2022-09-12T19:18:26.812Z,22.81
2022-09-12T19:20:54.319Z,22.64
2022-09-12T19:23:21.508Z,22.85
2022-09-12T19:26:05.591Z,22.99
2022-09-12T19:28:33.646Z,22.81
2022-09-12T19:31:04.131Z,22.73
2022-09-12T19:39:09.102Z,22.84
2022-09-12T19:45:26.030Z,23.21
2022-09-12T19:47:55.670Z,23.09
2022-09-12T19:50:25.129Z,23.06
2022-09-12T19:52:52.499Z,23.15
2022-09-12T19:55:20.148Z,23.19
2022-09-12T19:57:48.773Z,23.00
2022-09-12T20:00:19.102Z,23.08
2022-09-12T20:02:51.057Z,22.90
2022-09-12T20:05:21.057Z,23.23
2022-09-12T20:07:48.470Z,23.11
2022-09-12T20:15:54.253Z,23.40
2022-09-12T20:18:22.331Z,23.36
2022-09-12T20:20:49.659Z,23.53
2022-09-12T20:23:18.021Z,23.15
2022-09-12T20:25:45.110Z,23.31
2022-09-12T20:29:13.823Z,23.12
2022-09-12T20:31:43.971Z,23.11
2022-09-12T20:34:20.514Z,23.21
2022-09-12T20:36:48.270Z,23.45
2022-09-12T20:39:27.043Z,23.05
2022-09-12T20:42:05.789Z,23.05
2022-09-12T20:44:47.114Z,23.39
2022-09-12T20:47:17.539Z,23.40
2022-09-12T20:52:53.075Z,23.52
2022-09-12T20:55:24.362Z,23.22
2022-09-12T20:58:02.703Z,23.22
2022-09-12T21:00:58.563Z,23.72
2022-09-12T21:03:35.203Z,23.67
